ΕΜΥ, Εθνική Μετεωρολογική Υπηρεσία - Δελτία Καιρού, Προγνώσεις

ΑΕΡΟΝΑΥΤΙΛΙΑ

GREEK AIRPORTS CODES

LGLR 190750Z 08004KT 9999 FEW040 SCT080 17/07 Q1010=

EUROPEAN AIRPORTS CODES

LFPO 190800Z 27011KT 9999 SCT020 BKN033 BKN041 09/05 Q1019NOSIG=